Time;durP1;ratioP1;P1;durP2;ratioP2;P2;SDS_P1;SDS_P2;PMS_P1;PMS_P2;Temp;Humidity;BMP_temperature;BMP_pressure;BME280_temperature;BME280_humidity;BME280_pressure;Samples;Min_cycle;Max_cycle;Signal;HPM_P1;HPM_P2
2023/05/10 00:01:51;;;;;;;6.67;5.10;;;12.90;99.90;;;;;;5099371;28;20444;-66
2023/05/10 00:04:18;;;;;;;5.40;4.90;;;12.80;99.90;;;;;;5099567;28;20471;-66
2023/05/10 00:06:47;;;;;;;4.60;4.10;;;12.70;99.90;;;;;;5099100;28;20521;-66
2023/05/10 00:09:14;;;;;;;5.40;4.53;;;12.70;99.90;;;;;;5099637;28;20764;-66
2023/05/10 00:11:44;;;;;;;7.03;6.33;;;12.70;99.90;;;;;;5099337;28;20530;-66
2023/05/10 00:14:13;;;;;;;6.37;5.77;;;12.70;99.90;;;;;;5099237;28;20439;-66
2023/05/10 00:16:40;;;;;;;9.00;6.30;;;12.70;99.90;;;;;;5099616;28;20525;-66
2023/05/10 00:19:07;;;;;;;8.40;6.30;;;12.70;99.90;;;;;;5099329;28;20575;-67
2023/05/10 00:21:35;;;;;;;8.37;7.07;;;12.80;99.90;;;;;;5099009;28;20926;-66
2023/05/10 00:24:04;;;;;;;7.97;6.77;;;12.70;99.90;;;;;;5099029;28;20861;-66
2023/05/10 00:26:31;;;;;;;7.80;6.77;;;12.70;99.90;;;;;;5099092;28;20716;-66
2023/05/10 00:28:58;;;;;;;7.83;6.80;;;12.70;99.90;;;;;;5099223;28;20482;-66
2023/05/10 00:31:26;;;;;;;8.00;7.03;;;12.80;99.90;;;;;;5098222;28;20524;-66
2023/05/10 00:33:53;;;;;;;7.90;7.03;;;12.70;99.90;;;;;;5099063;28;20482;-67
2023/05/10 00:36:20;;;;;;;7.37;6.63;;;12.80;99.90;;;;;;5098851;28;20459;-66
2023/05/10 00:38:47;;;;;;;8.10;7.10;;;12.80;99.90;;;;;;5098272;28;20794;-66
2023/05/10 00:41:16;;;;;;;8.20;7.20;;;12.80;99.90;;;;;;5098918;28;20775;-66
2023/05/10 00:43:43;;;;;;;9.33;8.03;;;12.80;99.90;;;;;;5098656;28;20461;-67
2023/05/10 00:46:11;;;;;;;8.77;7.30;;;12.80;99.90;;;;;;5098547;28;20437;-66
2023/05/10 00:48:38;;;;;;;7.57;6.77;;;12.80;99.90;;;;;;5098501;28;20460;-66
2023/05/10 00:51:06;;;;;;;8.70;7.43;;;12.80;99.90;;;;;;5099136;28;20464;-67
2023/05/10 00:53:33;;;;;;;8.67;7.77;;;12.80;99.90;;;;;;5098638;28;20454;-67
2023/05/10 00:56:01;;;;;;;9.83;8.90;;;12.80;99.90;;;;;;5098379;28;20479;-67
2023/05/10 00:58:30;;;;;;;9.43;8.50;;;12.80;99.90;;;;;;5098047;28;20493;-66
2023/05/10 01:00:58;;;;;;;9.13;8.23;;;12.90;99.90;;;;;;5098430;28;20488;-67
2023/05/10 01:03:26;;;;;;;9.73;8.23;;;12.80;99.90;;;;;;5098176;28;20492;-66
2023/05/10 01:05:53;;;;;;;8.93;8.00;;;12.90;99.90;;;;;;5098800;28;20470;-66
2023/05/10 01:08:21;;;;;;;9.40;8.07;;;12.90;99.90;;;;;;5098368;28;20435;-66
2023/05/10 01:10:49;;;;;;;7.90;7.07;;;12.90;99.90;;;;;;5098589;28;20492;-66
2023/05/10 01:13:26;;;;;;;8.77;7.13;;;12.80;99.90;;;;;;5098318;28;20456;-66
2023/05/10 01:15:56;;;;;;;8.60;7.70;;;12.80;99.90;;;;;;5098383;28;20571;-66
2023/05/10 01:18:25;;;;;;;10.17;7.40;;;12.80;99.90;;;;;;5097956;28;20784;-66
2023/05/10 01:21:06;;;;;;;8.07;7.27;;;12.80;99.90;;;;;;5098368;28;20878;-66
2023/05/10 01:23:46;;;;;;;8.10;7.30;;;12.80;99.90;;;;;;5097778;28;20842;-66
2023/05/10 01:26:40;;;;;;;8.77;7.20;;;12.70;99.90;;;;;;5097776;28;20525;-66
2023/05/10 01:29:25;;;;;;;8.87;7.70;;;12.80;99.90;;;;;;5098241;28;20897;-66
2023/05/10 01:32:08;;;;;;;8.70;7.20;;;12.70;99.90;;;;;;5097569;28;20566;-66
2023/05/10 01:34:43;;;;;;;9.30;8.00;;;12.70;99.90;;;;;;5098170;28;20906;-67
2023/05/10 01:37:14;;;;;;;8.60;7.53;;;12.70;99.90;;;;;;5098323;28;20546;-67
2023/05/10 01:39:59;;;;;;;10.10;7.40;;;12.60;99.90;;;;;;5097831;28;20480;-68
2023/05/10 01:42:33;;;;;;;9.60;7.80;;;12.60;99.90;;;;;;5098545;28;20488;-68
2023/05/10 01:45:08;;;;;;;11.30;8.77;;;12.60;99.90;;;;;;5098688;28;20456;-68
2023/05/10 01:47:41;;;;;;;10.03;9.00;;;12.70;99.90;;;;;;5098212;28;20431;-68
2023/05/10 01:50:14;;;;;;;9.80;8.27;;;12.70;99.90;;;;;;5097863;28;20453;-68
2023/05/10 01:52:44;;;;;;;10.40;9.27;;;12.70;99.90;;;;;;5098247;28;20460;-68
2023/05/10 01:55:21;;;;;;;10.97;9.47;;;12.70;99.90;;;;;;5097566;28;20543;-68
2023/05/10 01:57:51;;;;;;;12.30;9.60;;;12.70;99.90;;;;;;5097909;28;20467;-68
2023/05/10 02:00:20;;;;;;;10.63;9.53;;;12.70;99.90;;;;;;5098047;28;20460;-68
2023/05/10 02:02:50;;;;;;;10.27;9.20;;;12.70;99.90;;;;;;5088972;28;20948;-67
2023/05/10 02:05:20;;;;;;;9.93;8.93;;;12.70;99.90;;;;;;5077338;28;20879;-66
2023/05/10 02:07:48;;;;;;;10.67;9.30;;;12.70;99.90;;;;;;5076983;28;20821;-66
2023/05/10 02:10:16;;;;;;;9.97;8.87;;;12.70;99.90;;;;;;5077590;28;20469;-66
2023/05/10 02:12:48;;;;;;;11.57;9.33;;;12.70;99.90;;;;;;5077996;28;20435;-66
2023/05/10 02:15:19;;;;;;;9.53;7.80;;;12.70;99.90;;;;;;5077942;28;20530;-65
2023/05/10 02:17:49;;;;;;;9.03;8.00;;;12.70;99.90;;;;;;5077156;28;20579;-66
2023/05/10 02:20:19;;;;;;;8.30;7.50;;;12.60;99.90;;;;;;5077479;28;20897;-68
2023/05/10 02:22:50;;;;;;;7.60;6.80;;;12.70;99.90;;;;;;5077874;28;20519;-69
2023/05/10 02:25:19;;;;;;;7.37;6.67;;;12.70;99.90;;;;;;5077052;28;20489;-68
2023/05/10 02:27:47;;;;;;;8.00;7.20;;;12.60;99.90;;;;;;5077274;28;20465;-67
2023/05/10 02:30:15;;;;;;;7.83;6.60;;;12.60;99.90;;;;;;5076752;28;20559;-67
2023/05/10 02:32:44;;;;;;;6.87;6.20;;;12.60;99.90;;;;;;5077469;28;20519;-66
2023/05/10 02:35:13;;;;;;;7.07;6.37;;;12.60;99.90;;;;;;5076881;28;20465;-66
2023/05/10 02:37:42;;;;;;;7.30;6.60;;;12.50;99.90;;;;;;5075833;28;20428;-66
2023/05/10 02:40:11;;;;;;;7.00;6.40;;;12.50;99.90;;;;;;5076196;28;20568;-66
2023/05/10 02:42:42;;;;;;;8.60;7.30;;;12.50;99.90;;;;;;5077079;28;20470;-66
2023/05/10 02:45:14;;;;;;;7.40;6.60;;;12.60;99.90;;;;;;5077289;28;20889;-65
2023/05/10 02:47:42;;;;;;;7.50;6.70;;;12.60;99.90;;;;;;5076568;28;20947;-66
2023/05/10 02:50:10;;;;;;;7.63;6.33;;;12.50;99.90;;;;;;5076683;28;20840;-65
2023/05/10 02:52:41;;;;;;;7.60;6.80;;;12.50;99.90;;;;;;5076812;28;20868;-65
2023/05/10 02:55:12;;;;;;;8.73;7.83;;;12.50;99.90;;;;;;5076902;28;20560;-65
2023/05/10 02:57:44;;;;;;;8.23;7.43;;;12.50;99.90;;;;;;5075537;28;20468;-65
2023/05/10 03:00:12;;;;;;;9.20;8.30;;;12.50;99.90;;;;;;5075417;28;20460;-66
2023/05/10 03:02:39;;;;;;;8.63;7.80;;;12.50;99.90;;;;;;5076359;28;20554;-66
2023/05/10 03:05:07;;;;;;;9.60;8.50;;;12.40;99.90;;;;;;5078628;28;20433;-66
2023/05/10 03:07:34;;;;;;;10.73;9.63;;;12.40;99.90;;;;;;5078571;28;20581;-66
2023/05/10 03:10:04;;;;;;;9.63;8.70;;;12.30;99.90;;;;;;5078475;28;20771;-65
2023/05/10 03:12:43;;;;;;;9.70;8.80;;;12.30;99.90;;;;;;5080023;28;20435;-66
2023/05/10 03:15:18;;;;;;;9.63;8.60;;;12.30;99.90;;;;;;5080362;28;20461;-66
2023/05/10 03:17:53;;;;;;;10.80;9.70;;;12.20;99.90;;;;;;5080018;28;20551;-66
2023/05/10 03:20:26;;;;;;;11.60;10.37;;;12.30;99.90;;;;;;5079977;28;20917;-66
2023/05/10 03:23:01;;;;;;;13.53;12.10;;;12.30;99.90;;;;;;5080040;28;20464;-65
2023/05/10 03:25:31;;;;;;;12.90;10.73;;;12.30;99.90;;;;;;5079437;28;20483;-65
2023/05/10 03:28:00;;;;;;;12.73;11.43;;;12.30;99.90;;;;;;5079438;28;20561;-66
2023/05/10 03:30:28;;;;;;;14.43;12.97;;;12.30;99.90;;;;;;5083594;28;20454;-66
2023/05/10 03:32:56;;;;;;;14.90;12.87;;;12.30;99.90;;;;;;5099941;28;20435;-66
2023/05/10 03:35:25;;;;;;;13.93;12.47;;;12.30;99.90;;;;;;5099449;28;20511;-65
2023/05/10 03:37:52;;;;;;;14.43;12.30;;;12.30;99.90;;;;;;5099681;28;20526;-65
2023/05/10 03:40:19;;;;;;;13.50;11.30;;;12.30;99.90;;;;;;5099853;28;20465;-66
2023/05/10 03:42:48;;;;;;;13.67;12.27;;;12.30;99.90;;;;;;5099797;28;20464;-66
2023/05/10 03:45:15;;;;;;;12.33;11.03;;;12.30;99.90;;;;;;5100023;28;20486;-66
2023/05/10 03:47:42;;;;;;;13.30;11.80;;;12.30;99.90;;;;;;5099828;28;20464;-66
2023/05/10 03:50:10;;;;;;;19.53;11.33;;;12.30;99.90;;;;;;5099865;28;20710;-66
2023/05/10 03:52:38;;;;;;;11.90;10.70;;;12.30;99.90;;;;;;5099892;28;20881;-65
2023/05/10 03:55:07;;;;;;;14.00;12.50;;;12.40;99.90;;;;;;5099819;28;20460;-65
2023/05/10 03:57:35;;;;;;;12.90;10.90;;;12.30;99.90;;;;;;5099144;28;20464;-66
2023/05/10 04:00:05;;;;;;;11.40;10.20;;;12.30;99.90;;;;;;5099436;28;20942;-65
2023/05/10 04:02:32;;;;;;;13.17;11.77;;;12.30;99.90;;;;;;5099399;28;20565;-65
2023/05/10 04:04:59;;;;;;;11.70;10.50;;;12.30;99.90;;;;;;5081798;28;20463;-66
2023/05/10 04:07:26;;;;;;;13.30;10.80;;;12.20;99.90;;;;;;5078726;28;20745;-65
2023/05/10 04:09:53;;;;;;;13.30;10.83;;;12.20;99.90;;;;;;5078694;28;20463;-66
2023/05/10 04:12:21;;;;;;;15.97;12.20;;;12.20;99.90;;;;;;5078438;28;20561;-66
2023/05/10 04:14:48;;;;;;;15.60;14.00;;;12.20;99.90;;;;;;5079158;28;20891;-66
2023/05/10 04:17:16;;;;;;;16.60;14.70;;;12.30;99.90;;;;;;5078716;28;20574;-66
2023/05/10 04:19:44;;;;;;;19.80;15.10;;;12.30;99.90;;;;;;5078841;28;20910;-65
2023/05/10 04:22:11;;;;;;;17.60;15.70;;;12.30;99.90;;;;;;5078839;28;20461;-65
2023/05/10 04:24:38;;;;;;;17.87;15.70;;;12.40;99.90;;;;;;5079027;28;20837;-66
2023/05/10 04:27:05;;;;;;;19.50;16.50;;;12.40;99.90;;;;;;5079754;28;20472;-66
2023/05/10 04:29:32;;;;;;;18.90;16.67;;;12.40;99.90;;;;;;5098781;28;20885;-65
2023/05/10 04:32:00;;;;;;;17.90;15.57;;;12.40;99.90;;;;;;5081264;28;20547;-66
2023/05/10 04:34:28;;;;;;;20.30;16.30;;;12.40;99.90;;;;;;5077946;28;20564;-66
2023/05/10 04:36:55;;;;;;;20.20;15.90;;;12.40;99.90;;;;;;5076757;28;20442;-65
2023/05/10 04:39:23;;;;;;;18.53;15.37;;;12.40;99.90;;;;;;5076573;28;20949;-66
2023/05/10 04:41:50;;;;;;;22.30;17.40;;;12.50;99.90;;;;;;5075668;28;20968;-66
2023/05/10 04:44:17;;;;;;;21.87;17.57;;;12.50;99.90;;;;;;5077211;28;20468;-66
2023/05/10 04:46:44;;;;;;;18.10;16.10;;;12.50;99.90;;;;;;5076726;28;20460;-66
2023/05/10 04:49:11;;;;;;;21.60;16.93;;;12.50;99.90;;;;;;5076610;28;20722;-66
2023/05/10 04:51:40;;;;;;;21.93;17.67;;;12.60;99.90;;;;;;5076680;28;20761;-66
2023/05/10 04:54:07;;;;;;;26.07;20.43;;;12.50;99.90;;;;;;5082930;28;20550;-66
2023/05/10 04:56:34;;;;;;;21.00;18.03;;;12.50;99.90;;;;;;5095596;28;20555;-66
2023/05/10 04:59:01;;;;;;;28.20;22.00;;;12.50;99.90;;;;;;5095119;28;20519;-66
2023/05/10 05:01:29;;;;;;;26.57;20.53;;;12.60;99.90;;;;;;5094748;28;20467;-66
2023/05/10 05:03:56;;;;;;;31.10;23.20;;;12.60;99.90;;;;;;5094446;28;20439;-66
2023/05/10 05:06:24;;;;;;;33.30;23.40;;;12.60;99.90;;;;;;5094536;28;20466;-66
2023/05/10 05:08:53;;;;;;;32.67;23.87;;;12.60;99.90;;;;;;5095368;28;20468;-66
2023/05/10 05:11:20;;;;;;;31.70;24.10;;;12.60;99.90;;;;;;5094033;28;20536;-66
2023/05/10 05:13:48;;;;;;;34.83;25.80;;;12.60;99.90;;;;;;5095416;28;20507;-66
2023/05/10 05:16:15;;;;;;;32.43;24.30;;;12.60;99.90;;;;;;5096767;28;20529;-66
2023/05/10 05:18:44;;;;;;;30.53;23.20;;;12.50;99.90;;;;;;5097785;28;20808;-66
2023/05/10 05:21:18;;;;;;;31.53;24.57;;;12.50;99.90;;;;;;5097593;28;20464;-66
2023/05/10 05:23:47;;;;;;;32.70;23.20;;;12.60;99.90;;;;;;5097024;28;20877;-66
2023/05/10 05:26:16;;;;;;;33.73;23.63;;;12.60;99.90;;;;;;5096755;28;20551;-66
2023/05/10 05:28:43;;;;;;;33.43;22.97;;;12.70;99.90;;;;;;5097726;28;20563;-66
2023/05/10 05:31:10;;;;;;;32.80;24.33;;;12.70;99.90;;;;;;5093018;28;20492;-66
2023/05/10 05:33:38;;;;;;;37.23;26.53;;;12.70;99.90;;;;;;5096696;28;20837;-66
2023/05/10 05:36:06;;;;;;;35.80;25.47;;;12.70;99.90;;;;;;5095640;28;20536;-66
2023/05/10 05:38:36;;;;;;;35.03;25.30;;;12.80;99.90;;;;;;5095326;28;20485;-66
2023/05/10 05:41:04;;;;;;;36.33;25.13;;;12.80;99.90;;;;;;5095230;28;20921;-65
2023/05/10 05:43:32;;;;;;;35.53;24.80;;;12.80;99.90;;;;;;5095700;28;20532;-64
2023/05/10 05:46:00;;;;;;;32.43;22.93;;;12.70;99.90;;;;;;5095658;28;20885;-64
2023/05/10 05:48:27;;;;;;;33.00;23.57;;;12.60;99.90;;;;;;5096373;28;20538;-64
2023/05/10 05:50:56;;;;;;;38.47;24.13;;;12.70;99.90;;;;;;5095123;28;20472;-64
2023/05/10 05:53:24;;;;;;;34.37;24.30;;;12.70;99.90;;;;;;5095305;28;20471;-65
2023/05/10 05:55:54;;;;;;;37.37;24.93;;;12.80;99.90;;;;;;5092572;28;20450;-65
2023/05/10 05:58:22;;;;;;;36.40;24.73;;;12.80;99.90;;;;;;5079903;28;20439;-65
2023/05/10 06:00:51;;;;;;;31.50;22.63;;;12.80;99.90;;;;;;5076429;28;20507;-64
2023/05/10 06:03:19;;;;;;;48.03;24.40;;;12.90;99.90;;;;;;5076417;28;20470;-64
2023/05/10 06:05:46;;;;;;;36.50;23.10;;;13.00;99.90;;;;;;5076708;28;20534;-65
2023/05/10 06:08:13;;;;;;;31.57;23.30;;;13.00;99.90;;;;;;5076404;28;20552;-65
2023/05/10 06:10:40;;;;;;;33.60;24.50;;;13.10;99.90;;;;;;5077111;28;20467;-64
2023/05/10 06:13:08;;;;;;;31.37;22.57;;;13.10;99.90;;;;;;5076556;28;20515;-65
2023/05/10 06:15:35;;;;;;;35.70;24.80;;;13.10;99.90;;;;;;5076497;28;20465;-65
2023/05/10 06:18:04;;;;;;;34.20;25.73;;;13.20;99.90;;;;;;5076752;28;20944;-65
2023/05/10 06:20:32;;;;;;;31.27;22.93;;;13.20;99.90;;;;;;5077177;28;20583;-65
2023/05/10 06:22:59;;;;;;;29.83;22.50;;;13.30;99.90;;;;;;5085367;28;20452;-65
2023/05/10 06:25:27;;;;;;;36.93;23.40;;;13.40;99.90;;;;;;5090380;28;20471;-65
2023/05/10 06:27:57;;;;;;;35.20;22.57;;;13.40;99.90;;;;;;5097042;28;20515;-65
2023/05/10 06:30:27;;;;;;;30.47;20.93;;;13.50;99.90;;;;;;5097100;28;20512;-65
2023/05/10 06:32:55;;;;;;;30.77;20.83;;;13.60;99.90;;;;;;5097022;28;20468;-65
2023/05/10 06:35:24;;;;;;;29.80;21.07;;;13.70;99.90;;;;;;5096496;28;20439;-65
2023/05/10 06:37:51;;;;;;;22.50;18.90;;;13.70;99.90;;;;;;5098583;28;20482;-65
2023/05/10 06:40:19;;;;;;;24.83;20.03;;;13.80;99.90;;;;;;5101028;28;20499;-65
2023/05/10 06:42:47;;;;;;;26.87;20.40;;;13.70;99.90;;;;;;5101240;28;20460;-65
2023/05/10 06:45:15;;;;;;;27.57;20.67;;;13.70;99.90;;;;;;5101070;28;20456;-65
2023/05/10 06:47:42;;;;;;;26.40;19.90;;;13.80;99.90;;;;;;5100350;28;20443;-65
2023/05/10 06:50:11;;;;;;;25.20;19.80;;;13.70;99.90;;;;;;5100606;28;20847;-65
2023/05/10 06:52:40;;;;;;;31.43;22.80;;;13.90;99.90;;;;;;5100987;28;20439;-66
2023/05/10 06:55:08;;;;;;;31.80;22.03;;;13.80;99.90;;;;;;5100647;28;20489;-65
2023/05/10 06:57:36;;;;;;;22.60;19.33;;;13.80;99.90;;;;;;5093266;28;20561;-65
2023/05/10 07:00:05;;;;;;;24.13;18.50;;;13.60;99.90;;;;;;5077751;28;20496;-65
2023/05/10 07:02:32;;;;;;;19.70;16.73;;;13.60;99.90;;;;;;5077781;28;20466;-65
2023/05/10 07:04:59;;;;;;;20.90;18.20;;;13.60;99.90;;;;;;5077998;28;20847;-66
2023/05/10 07:07:26;;;;;;;20.47;17.50;;;13.60;99.90;;;;;;5077797;28;20738;-66
2023/05/10 07:09:56;;;;;;;23.10;18.87;;;13.60;99.90;;;;;;5078346;28;20507;-66
2023/05/10 07:12:23;;;;;;;20.83;17.40;;;13.60;99.90;;;;;;5078035;28;20468;-66
2023/05/10 07:14:51;;;;;;;19.93;17.53;;;13.60;99.90;;;;;;5079496;28;20518;-66
2023/05/10 07:17:18;;;;;;;19.30;16.50;;;13.60;99.90;;;;;;5078449;28;20461;-66
2023/05/10 07:19:45;;;;;;;23.90;17.93;;;13.60;99.90;;;;;;5076687;28;20579;-66
2023/05/10 07:22:12;;;;;;;23.20;15.90;;;13.60;99.90;;;;;;5077273;28;20467;-66
2023/05/10 07:24:40;;;;;;;23.23;16.83;;;13.50;99.90;;;;;;5078384;28;20439;-66
2023/05/10 07:27:09;;;;;;;20.77;15.87;;;13.40;99.90;;;;;;5078546;28;20825;-66
2023/05/10 07:29:37;;;;;;;23.30;18.47;;;13.40;99.90;;;;;;5077766;28;20486;-66
2023/05/10 07:32:04;;;;;;;27.50;19.13;;;13.30;99.90;;;;;;5077715;28;20550;-66
2023/05/10 07:34:31;;;;;;;22.60;18.90;;;13.30;99.90;;;;;;5078281;28;20493;-66
2023/05/10 07:37:00;;;;;;;21.63;18.03;;;13.20;99.90;;;;;;5076529;28;20555;-66
2023/05/10 07:39:27;;;;;;;24.93;19.00;;;13.10;99.90;;;;;;5077688;28;20442;-66
2023/05/10 07:41:54;;;;;;;27.97;19.53;;;13.10;99.90;;;;;;5078139;28;20540;-66
2023/05/10 07:44:23;;;;;;;23.53;20.23;;;13.20;99.90;;;;;;5078337;28;20763;-66
2023/05/10 07:46:51;;;;;;;24.70;19.43;;;13.30;99.90;;;;;;5079034;28;20940;-66
2023/05/10 07:49:18;;;;;;;24.60;18.60;;;13.40;99.90;;;;;;5079311;28;20457;-66
2023/05/10 07:51:45;;;;;;;21.73;18.33;;;13.40;99.90;;;;;;5079408;28;20469;-66
2023/05/10 07:54:12;;;;;;;26.73;20.53;;;13.50;99.90;;;;;;5078611;28;20471;-66
2023/05/10 07:56:44;;;;;;;25.83;20.13;;;13.40;99.90;;;;;;5077392;28;20542;-66
2023/05/10 07:59:15;;;;;;;25.40;19.30;;;13.40;99.90;;;;;;5077472;28;20461;-66
2023/05/10 08:01:44;;;;;;;23.87;19.57;;;13.50;99.90;;;;;;5076057;28;20455;-66
2023/05/10 08:04:11;;;;;;;23.67;18.70;;;13.40;99.90;;;;;;5075464;28;20492;-66
2023/05/10 08:06:38;;;;;;;23.20;17.37;;;13.30;99.90;;;;;;5077789;28;20886;-66
2023/05/10 08:09:06;;;;;;;21.40;17.30;;;13.40;99.90;;;;;;5077735;28;20825;-66
2023/05/10 08:11:33;;;;;;;20.23;15.03;;;13.50;99.90;;;;;;5079021;28;20434;-66
2023/05/10 08:14:00;;;;;;;20.83;15.20;;;13.70;99.90;;;;;;5078417;28;20870;-66
2023/05/10 08:16:28;;;;;;;16.13;14.10;;;14.20;99.90;;;;;;5076706;28;20544;-66
2023/05/10 08:18:57;;;;;;;14.13;12.50;;;14.40;99.90;;;;;;5078833;28;20572;-67
2023/05/10 08:21:24;;;;;;;15.60;12.03;;;14.30;99.90;;;;;;5078293;28;20493;-67
2023/05/10 08:23:51;;;;;;;14.43;11.90;;;14.40;99.90;;;;;;5078438;28;20556;-67
2023/05/10 08:26:18;;;;;;;13.90;12.30;;;14.40;99.90;;;;;;5079018;28;20486;-67
2023/05/10 08:28:45;;;;;;;14.03;12.23;;;14.30;99.90;;;;;;5078522;28;20560;-67
2023/05/10 08:31:13;;;;;;;12.80;11.23;;;14.40;99.90;;;;;;5078023;28;20539;-67
2023/05/10 08:33:40;;;;;;;13.73;12.23;;;14.60;99.90;;;;;;5078193;28;20531;-67
2023/05/10 08:36:09;;;;;;;14.60;12.77;;;14.70;99.90;;;;;;5077884;28;20827;-67
2023/05/10 08:38:36;;;;;;;15.40;12.07;;;15.00;99.90;;;;;;5078269;28;20508;-67
2023/05/10 08:41:04;;;;;;;14.20;11.77;;;15.10;99.90;;;;;;5077475;28;21007;-68
2023/05/10 08:43:32;;;;;;;14.60;11.90;;;15.30;99.90;;;;;;5076508;28;20493;-68
2023/05/10 08:46:02;;;;;;;14.10;12.37;;;16.00;99.90;;;;;;5078418;28;20461;-68
2023/05/10 08:48:30;;;;;;;14.30;12.80;;;16.80;99.90;;;;;;5078423;28;20823;-68
2023/05/10 08:51:01;;;;;;;13.90;12.10;;;17.70;99.90;;;;;;5078065;28;20457;-68
2023/05/10 08:53:32;;;;;;;13.43;11.90;;;17.90;92.60;;;;;;5077690;28;20485;-68
2023/05/10 08:55:59;;;;;;;17.73;12.53;;;17.70;16.40;;;;;;5078110;28;20492;-68
2023/05/10 08:58:27;;;;;;;16.30;12.93;;;17.20;1.00;;;;;;5078175;28;20757;-68
2023/05/10 09:00:54;;;;;;;18.60;14.30;;;16.60;14.40;;;;;;5077227;28;20493;-68
2023/05/10 09:03:21;;;;;;;17.33;14.60;;;16.10;99.90;;;;;;5077500;28;20461;-68
2023/05/10 09:05:50;;;;;;;20.83;16.70;;;15.90;99.90;;;;;;5076518;28;20556;-68
2023/05/10 09:08:19;;;;;;;16.57;14.10;;;15.90;1.00;;;;;;5077463;28;20968;-67
2023/05/10 09:10:50;;;;;;;20.60;14.07;;;16.00;99.90;;;;;;5078238;28;20428;-67
2023/05/10 09:13:18;;;;;;;14.03;12.57;;;16.40;99.90;;;;;;5078411;28;20457;-66
2023/05/10 09:15:46;;;;;;;16.67;12.20;;;16.60;99.90;;;;;;5077445;28;20468;-66
2023/05/10 09:18:13;;;;;;;14.63;11.57;;;16.60;19.60;;;;;;5077551;28;20477;-66
2023/05/10 09:20:41;;;;;;;13.57;11.20;;;16.90;24.50;;;;;;5077869;28;20588;-66
2023/05/10 09:23:09;;;;;;;20.73;12.20;;;17.20;1.00;;;;;;5077994;28;20464;-66
2023/05/10 09:25:38;;;;;;;14.20;10.63;;;16.80;1.00;;;;;;5077158;28;20591;-66
2023/05/10 09:28:09;;;;;;;12.40;10.83;;;16.30;8.70;;;;;;5077714;28;20916;-66
2023/05/10 09:30:37;;;;;;;14.93;12.77;;;15.50;99.90;;;;;;5082607;28;20508;-66
2023/05/10 09:33:04;;;;;;;19.13;14.80;;;15.10;99.90;;;;;;5097786;28;20510;-66
2023/05/10 09:35:33;;;;;;;19.57;15.67;;;15.20;99.90;;;;;;5097564;28;20460;-65
2023/05/10 09:38:03;;;;;;;21.43;15.37;;;15.10;99.90;;;;;;5096950;28;20722;-65
2023/05/10 09:40:31;;;;;;;17.30;14.50;;;15.00;1.00;;;;;;5096193;28;20960;-65
2023/05/10 09:43:01;;;;;;;18.97;15.67;;;15.20;1.00;;;;;;5095468;28;20836;-65
2023/05/10 09:45:31;;;;;;;20.50;17.70;;;15.40;99.90;;;;;;5095812;28;20439;-65
2023/05/10 09:47:58;;;;;;;20.80;16.80;;;15.60;99.90;;;;;;5096155;28;20877;-66
2023/05/10 09:50:27;;;;;;;26.77;17.63;;;15.40;1.00;;;;;;5096900;28;20456;-64
2023/05/10 09:52:57;;;;;;;17.70;15.37;;;15.40;1.00;;;;;;5097370;28;20467;-65
2023/05/10 09:55:25;;;;;;;20.43;15.60;;;15.60;1.00;;;;;;5096043;28;20534;-65
2023/05/10 09:58:01;;;;;;;20.10;16.37;;;15.80;1.00;;;;;;5096016;28;20496;-65
2023/05/10 10:00:35;;;;;;;22.30;17.00;;;15.80;99.90;;;;;;5096128;28;20537;-64
2023/05/10 10:03:04;;;;;;;20.80;16.80;;;16.20;99.90;;;;;;5096030;28;20460;-65
2023/05/10 10:05:31;;;;;;;20.97;17.03;;;16.20;25.00;;;;;;5096148;28;20465;-65
2023/05/10 10:07:59;;;;;;;19.23;15.20;;;16.20;1.00;;;;;;5096992;28;20537;-65
2023/05/10 10:10:26;;;;;;;18.80;15.90;;;16.10;52.20;;;;;;5097396;28;20819;-64
2023/05/10 10:12:54;;;;;;;19.70;15.50;;;16.20;5.70;;;;;;5104074;28;20507;-65
2023/05/10 10:15:22;;;;;;;20.50;16.10;;;16.10;34.80;;;;;;5104874;28;20861;-64
2023/05/10 10:17:52;;;;;;;23.00;18.33;;;15.80;1.00;;;;;;5105260;28;20785;-65
2023/05/10 10:20:20;;;;;;;27.37;20.43;;;15.50;1.00;;;;;;5104371;28;20498;-66
2023/05/10 10:22:48;;;;;;;22.30;18.10;;;15.10;1.00;;;;;;5104863;28;20554;-65
2023/05/10 10:25:17;;;;;;;22.23;18.30;;;14.80;99.90;;;;;;5104928;28;20552;-65
2023/05/10 10:27:53;;;;;;;26.43;19.40;;;14.80;95.10;;;;;;5104234;28;20509;-64
2023/05/10 10:30:28;;;;;;;24.30;19.50;;;14.70;99.90;;;;;;5101445;28;20579;-65
2023/05/10 10:33:12;;;;;;;26.53;20.23;;;14.60;99.90;;;;;;5084619;28;20461;-64
2023/05/10 10:35:39;;;;;;;26.80;20.50;;;14.40;99.90;;;;;;5084145;28;20461;-64
2023/05/10 10:38:09;;;;;;;30.67;21.60;;;14.40;99.90;;;;;;5084034;28;20500;-65
2023/05/10 10:40:36;;;;;;;25.10;19.97;;;14.70;99.90;;;;;;5084416;28;21036;-63
2023/05/10 10:43:26;;;;;;;22.43;18.50;;;14.70;99.90;;;;;;5083949;28;20552;-63
2023/05/10 10:46:15;;;;;;;21.63;17.67;;;15.00;99.90;;;;;;5082430;28;20461;-63
2023/05/10 10:48:49;;;;;;;22.43;17.77;;;15.10;71.40;;;;;;5083785;28;20910;-63
2023/05/10 10:51:16;;;;;;;27.90;18.93;;;15.10;1.00;;;;;;5083973;28;20458;-63
2023/05/10 10:53:44;;;;;;;23.93;17.37;;;15.20;1.00;;;;;;5083614;28;20457;-63
2023/05/10 10:56:14;;;;;;;20.73;17.37;;;15.20;1.00;;;;;;5084104;28;20728;-63
2023/05/10 10:58:42;;;;;;;19.53;15.80;;;15.20;1.00;;;;;;5084239;28;20864;-63
2023/05/10 11:01:17;;;;;;;18.43;14.30;;;15.40;1.00;;;;;;5083952;28;20485;-63
2023/05/10 11:04:18;;;;;;;19.70;16.07;;;15.50;1.00;;;;;;5083225;28;20503;-63
2023/05/10 11:06:45;;;;;;;21.10;15.37;;;15.90;1.00;;;;;;5083616;28;20431;-63
2023/05/10 11:09:13;;;;;;;16.70;13.50;;;16.30;1.00;;;;;;5083874;28;20470;-63
2023/05/10 11:11:51;;;;;;;16.33;14.37;;;16.70;1.00;;;;;;5083110;28;20785;-63
2023/05/10 11:14:22;;;;;;;16.83;14.13;;;16.70;1.00;;;;;;5083386;28;20511;-63
2023/05/10 11:16:49;;;;;;;18.63;13.53;;;16.60;1.00;;;;;;5080910;28;20826;-62
2023/05/10 11:19:19;;;;;;;15.80;12.90;;;16.50;1.00;;;;;;5081645;28;20461;-63
2023/05/10 11:21:48;;;;;;;17.10;14.23;;;16.30;1.00;;;;;;5082026;28;20484;-62
2023/05/10 11:24:17;;;;;;;16.47;13.73;;;16.20;1.00;;;;;;5077650;28;20491;-63
2023/05/10 11:26:44;;;;;;;14.80;13.13;;;15.90;1.00;;;;;;5076515;28;20694;-63
2023/05/10 11:29:13;;;;;;;16.63;14.40;;;15.90;1.00;;;;;;5076801;28;20464;-63
2023/05/10 11:31:44;;;;;;;18.10;14.20;;;15.90;1.00;;;;;;5092049;28;20484;-62
2023/05/10 11:34:14;;;;;;;17.70;15.10;;;15.80;1.00;;;;;;5098364;28;20461;-62
2023/05/10 11:36:42;;;;;;;15.43;13.80;;;15.90;1.00;;;;;;5099215;28;20881;-62
2023/05/10 11:39:11;;;;;;;16.50;14.70;;;16.10;1.00;;;;;;5099243;28;20456;-62
2023/05/10 11:41:38;;;;;;;20.13;15.80;;;16.50;1.00;;;;;;5099575;28;20792;-62
2023/05/10 11:44:05;;;;;;;17.70;15.90;;;16.80;1.00;;;;;;5099668;28;20514;-62
2023/05/10 11:46:33;;;;;;;16.80;13.23;;;17.10;1.00;;;;;;5097788;28;20463;-62
2023/05/10 11:49:03;;;;;;;17.10;13.73;;;17.60;1.00;;;;;;5098671;28;20435;-62
2023/05/10 11:51:33;;;;;;;16.73;12.07;;;17.60;1.00;;;;;;5092404;28;20542;-62
2023/05/10 11:54:05;;;;;;;17.17;14.30;;;18.10;1.00;;;;;;5083222;28;20501;-62
2023/05/10 11:56:34;;;;;;;15.73;14.00;;;18.40;99.90;;;;;;5093083;28;20576;-62
2023/05/10 11:59:02;;;;;;;15.00;13.40;;;18.60;99.90;;;;;;5096343;28;20559;-62
2023/05/10 12:01:29;;;;;;;13.53;12.13;;;18.70;99.90;;;;;;5098219;28;20662;-62
2023/05/10 12:03:59;;;;;;;14.17;12.60;;;18.90;99.90;;;;;;5098217;28;20461;-62
2023/05/10 12:06:31;;;;;;;14.27;11.60;;;19.20;99.90;;;;;;5097661;28;20465;-62
2023/05/10 12:08:59;;;;;;;16.90;13.57;;;19.30;99.90;;;;;;5096572;28;20901;-61
2023/05/10 12:11:29;;;;;;;13.53;10.63;;;19.60;99.90;;;;;;5096233;28;20880;-62
2023/05/10 12:13:57;;;;;;;13.50;12.20;;;19.70;99.90;;;;;;5096382;28;20888;-61
2023/05/10 12:16:26;;;;;;;12.83;11.63;;;20.10;99.90;;;;;;5097317;28;20457;-61
2023/05/10 12:18:56;;;;;;;14.20;12.90;;;20.40;99.90;;;;;;5097313;28;20864;-62
2023/05/10 12:21:24;;;;;;;15.90;14.20;;;19.50;99.90;;;;;;5095927;28;20591;-62
2023/05/10 12:23:52;;;;;;;16.00;14.23;;;19.00;99.90;;;;;;5095808;28;20599;-62
2023/05/10 12:26:22;;;;;;;15.63;14.17;;;18.30;99.90;;;;;;5096550;28;20557;-62
2023/05/10 12:28:51;;;;;;;16.73;15.00;;;18.10;99.90;;;;;;5096451;28;20526;-64
2023/05/10 12:31:18;;;;;;;14.67;13.13;;;17.70;99.90;;;;;;5089572;28;20511;-63
2023/05/10 12:33:47;;;;;;;16.57;14.87;;;17.20;99.90;;;;;;5073338;28;20436;-63
2023/05/10 12:36:15;;;;;;;19.23;16.60;;;16.90;99.90;;;;;;5071985;28;20453;-63
2023/05/10 12:38:44;;;;;;;20.87;16.27;;;16.40;99.90;;;;;;5074761;28;20468;-63
2023/05/10 12:41:13;;;;;;;19.00;15.80;;;16.10;1.00;;;;;;5073353;28;20503;-63
2023/05/10 12:43:41;;;;;;;17.23;15.40;;;16.00;1.00;;;;;;5073787;28;20458;-63